Time;durP1;ratioP1;P1;durP2;ratioP2;P2;SDS_P1;SDS_P2;PMS_P1;PMS_P2;Temp;Humidity;BMP_temperature;BMP_pressure;BME280_temperature;BME280_humidity;BME280_pressure;Samples;Min_cycle;Max_cycle;Signal;HPM_P1;HPM_P2
2021/08/19 04:02:22;;;;;;;8.30;7.70;;;15.90;99.90;;;;;;5068215;23;20854;-67
2021/08/19 04:04:48;;;;;;;8.13;7.40;;;15.90;99.90;;;;;;4898632;29;20538;-67
2021/08/19 04:07:15;;;;;;;9.50;8.20;;;15.90;99.90;;;;;;4898682;29;20475;-68
2021/08/19 04:09:41;;;;;;;8.00;7.30;;;15.90;99.90;;;;;;4911036;29;20459;-67
2021/08/19 04:12:08;;;;;;;8.23;7.43;;;15.80;99.90;;;;;;4916560;29;20549;-67
2021/08/19 04:14:35;;;;;;;7.67;7.07;;;15.90;99.90;;;;;;4915353;29;20465;-67
2021/08/19 04:17:02;;;;;;;8.43;7.53;;;15.90;99.90;;;;;;4916537;29;20462;-68
2021/08/19 04:19:30;;;;;;;7.90;7.17;;;15.90;99.90;;;;;;4915890;29;20501;-70
2021/08/19 04:21:56;;;;;;;8.30;7.57;;;15.90;99.90;;;;;;4916564;29;20934;-70
2021/08/19 04:24:23;;;;;;;9.00;8.20;;;15.90;99.90;;;;;;4915635;29;20470;-69
2021/08/19 04:26:49;;;;;;;8.43;7.73;;;15.90;99.90;;;;;;4916682;29;20479;-70
2021/08/19 04:29:16;;;;;;;10.27;7.20;;;15.90;99.90;;;;;;4915193;29;20450;-70
2021/08/19 04:31:43;;;;;;;7.50;6.80;;;15.90;99.90;;;;;;4916658;29;20494;-70
2021/08/19 04:34:09;;;;;;;9.20;8.30;;;15.90;99.90;;;;;;4915955;29;20481;-70
2021/08/19 04:36:37;;;;;;;12.33;7.90;;;16.00;99.90;;;;;;4915530;29;20470;-70
2021/08/19 04:39:04;;;;;;;10.60;7.77;;;16.00;99.90;;;;;;4913856;29;20609;-71
2021/08/19 04:41:31;;;;;;;8.67;7.87;;;16.00;99.90;;;;;;4915873;29;20531;-71
2021/08/19 04:43:57;;;;;;;8.93;7.77;;;16.00;99.90;;;;;;4915341;29;20505;-70
2021/08/19 04:46:24;;;;;;;7.50;6.80;;;16.00;99.90;;;;;;4916638;29;20502;-70
2021/08/19 04:48:51;;;;;;;8.40;7.57;;;16.00;99.90;;;;;;4916034;29;20550;-70
2021/08/19 04:51:18;;;;;;;8.80;8.00;;;16.10;99.90;;;;;;4916163;29;20545;-70
2021/08/19 04:53:46;;;;;;;8.43;7.63;;;16.10;99.90;;;;;;4907956;29;20498;-71
2021/08/19 04:56:12;;;;;;;7.60;7.10;;;16.10;99.90;;;;;;4916336;29;20466;-71
2021/08/19 04:58:39;;;;;;;8.40;7.80;;;16.10;99.90;;;;;;4915326;29;20483;-70
2021/08/19 05:01:06;;;;;;;7.77;7.07;;;16.10;99.90;;;;;;4915872;29;21030;-71
2021/08/19 05:03:32;;;;;;;8.40;7.70;;;16.10;99.90;;;;;;4915509;29;20462;-70
2021/08/19 05:05:59;;;;;;;7.70;7.00;;;16.10;99.90;;;;;;4916626;29;20466;-73
2021/08/19 05:08:26;;;;;;;9.90;7.60;;;16.10;99.90;;;;;;4916212;29;20466;-72
2021/08/19 05:10:53;;;;;;;7.30;6.57;;;16.10;99.90;;;;;;4897481;29;20483;-71
2021/08/19 05:13:20;;;;;;;7.60;7.10;;;16.10;99.90;;;;;;4901338;29;20470;-71
2021/08/19 05:15:47;;;;;;;8.30;7.63;;;16.20;99.90;;;;;;4916727;29;20832;-71
2021/08/19 05:18:13;;;;;;;7.90;7.30;;;16.20;99.90;;;;;;4917316;29;20876;-71
2021/08/19 05:20:40;;;;;;;7.77;7.17;;;16.20;99.90;;;;;;4912255;29;20545;-71
2021/08/19 05:23:07;;;;;;;9.67;7.80;;;16.20;99.90;;;;;;4910333;29;20571;-70
2021/08/19 05:25:34;;;;;;;7.07;6.57;;;16.30;99.90;;;;;;4915585;29;20801;-72
2021/08/19 05:28:02;;;;;;;6.30;5.90;;;16.30;99.90;;;;;;4918982;29;20463;-69
2021/08/19 05:30:28;;;;;;;7.77;7.13;;;16.30;99.90;;;;;;4922358;29;20494;-68
2021/08/19 05:32:55;;;;;;;7.73;7.13;;;16.30;99.90;;;;;;4917328;29;20483;-68
2021/08/19 05:35:22;;;;;;;8.03;7.33;;;16.30;99.90;;;;;;4917786;29;20545;-69
2021/08/19 05:37:49;;;;;;;11.07;7.40;;;16.30;99.90;;;;;;4918848;29;20521;-69
2021/08/19 05:40:16;;;;;;;9.00;7.80;;;16.30;99.90;;;;;;4919224;29;20482;-69
2021/08/19 05:42:42;;;;;;;8.90;8.20;;;16.30;99.90;;;;;;4904209;29;20514;-71
2021/08/19 05:45:11;;;;;;;8.60;7.83;;;16.30;99.90;;;;;;4922210;29;20574;-70
2021/08/19 05:47:38;;;;;;;10.00;9.07;;;16.30;99.90;;;;;;4926630;29;20496;-70
2021/08/19 05:50:10;;;;;;;8.73;8.00;;;16.20;99.90;;;;;;4923901;29;20797;-70
2021/08/19 05:52:36;;;;;;;7.93;7.23;;;16.30;99.90;;;;;;4909627;29;20844;-69
2021/08/19 05:55:04;;;;;;;8.53;7.83;;;16.30;99.90;;;;;;4921947;29;20466;-70
2021/08/19 05:57:31;;;;;;;8.47;7.20;;;16.30;99.90;;;;;;4922466;29;20474;-70
2021/08/19 05:59:57;;;;;;;6.83;6.40;;;16.30;99.90;;;;;;4923592;29;20482;-70
2021/08/19 06:02:25;;;;;;;7.27;6.57;;;16.40;99.90;;;;;;4927757;29;20557;-70
2021/08/19 06:04:52;;;;;;;7.67;6.97;;;16.40;99.90;;;;;;4921767;29;20496;-70
2021/08/19 06:07:18;;;;;;;7.97;6.57;;;16.40;99.90;;;;;;4923419;29;20467;-70
2021/08/19 06:09:45;;;;;;;11.43;6.80;;;16.40;99.90;;;;;;4922132;29;20463;-70
2021/08/19 06:12:12;;;;;;;7.87;6.37;;;16.50;99.90;;;;;;4921257;29;20498;-70
2021/08/19 06:14:38;;;;;;;7.73;6.90;;;16.60;99.90;;;;;;4920700;29;20509;-70
2021/08/19 06:17:05;;;;;;;9.13;6.07;;;16.60;99.90;;;;;;4912500;29;20459;-70
2021/08/19 06:19:33;;;;;;;6.00;5.30;;;16.70;99.90;;;;;;4922702;29;20856;-70
2021/08/19 06:22:00;;;;;;;6.43;5.83;;;16.70;99.90;;;;;;4911828;29;20478;-70
2021/08/19 06:24:26;;;;;;;7.10;6.47;;;16.70;99.90;;;;;;4915920;29;20497;-70
2021/08/19 06:26:53;;;;;;;6.30;5.80;;;16.80;99.90;;;;;;4918234;29;20482;-70
2021/08/19 06:29:20;;;;;;;6.33;5.83;;;16.90;99.90;;;;;;4912995;29;20839;-70
2021/08/19 06:31:46;;;;;;;6.00;5.57;;;17.00;99.90;;;;;;4917109;29;20970;-70
2021/08/19 06:34:13;;;;;;;8.93;6.33;;;17.00;99.90;;;;;;4918078;29;20494;-70
2021/08/19 06:36:41;;;;;;;5.90;5.50;;;17.10;99.90;;;;;;4913398;29;20471;-70
2021/08/19 06:39:07;;;;;;;5.97;5.60;;;17.10;99.90;;;;;;4916232;29;20923;-69
2021/08/19 06:41:34;;;;;;;7.63;6.27;;;17.10;99.90;;;;;;4906391;29;20487;-70
2021/08/19 06:44:01;;;;;;;6.97;6.40;;;17.10;99.90;;;;;;4916217;29;20963;-70
2021/08/19 06:46:27;;;;;;;6.57;6.07;;;17.10;99.90;;;;;;4912545;29;20543;-70
2021/08/19 06:48:54;;;;;;;6.57;6.00;;;17.20;99.90;;;;;;4907879;29;20559;-69
2021/08/19 06:51:21;;;;;;;6.57;6.07;;;17.20;99.90;;;;;;4909253;29;20981;-70
2021/08/19 06:53:49;;;;;;;6.80;6.40;;;17.30;99.90;;;;;;4902800;29;20808;-69
2021/08/19 06:56:15;;;;;;;6.27;5.77;;;17.40;99.90;;;;;;4907503;29;20919;-70
2021/08/19 06:58:42;;;;;;;6.30;5.80;;;17.50;99.90;;;;;;4916614;29;20486;-69
2021/08/19 07:01:09;;;;;;;6.47;5.87;;;17.50;99.90;;;;;;4910307;29;20896;-71
2021/08/19 07:03:35;;;;;;;9.43;6.37;;;17.60;99.90;;;;;;4911828;29;20866;-70
2021/08/19 07:06:02;;;;;;;8.07;6.80;;;17.60;99.90;;;;;;4917973;29;20537;-72
2021/08/19 07:08:29;;;;;;;6.00;5.30;;;17.50;99.90;;;;;;4917041;29;21079;-71
2021/08/19 07:10:57;;;;;;;6.50;6.03;;;17.50;99.90;;;;;;4917846;29;20503;-71
2021/08/19 07:13:23;;;;;;;6.47;6.07;;;17.60;99.90;;;;;;4915473;29;20946;-68
2021/08/19 07:15:50;;;;;;;6.87;6.27;;;17.50;99.90;;;;;;4916709;29;20823;-68
2021/08/19 07:18:16;;;;;;;7.13;6.63;;;17.50;99.90;;;;;;4917522;29;20978;-68
2021/08/19 07:20:43;;;;;;;7.47;6.87;;;17.40;99.90;;;;;;4917517;29;20490;-67
2021/08/19 07:23:10;;;;;;;8.20;7.50;;;17.40;99.90;;;;;;4917182;29;20466;-68
2021/08/19 07:25:36;;;;;;;8.13;7.23;;;17.30;99.90;;;;;;4918128;29;20486;-68
2021/08/19 07:28:05;;;;;;;8.50;7.80;;;17.20;99.90;;;;;;4917148;29;20466;-67
2021/08/19 07:30:31;;;;;;;8.50;7.80;;;17.20;99.90;;;;;;4917473;29;20513;-66
2021/08/19 07:32:58;;;;;;;7.80;7.10;;;17.10;99.90;;;;;;4916892;29;20467;-67
2021/08/19 07:35:25;;;;;;;8.90;8.10;;;17.10;99.90;;;;;;4917365;29;20477;-70
2021/08/19 07:37:53;;;;;;;10.13;9.17;;;17.20;99.90;;;;;;4917491;29;20470;-71
2021/08/19 07:40:22;;;;;;;8.50;7.80;;;17.20;99.90;;;;;;4917117;29;20482;-71
2021/08/19 07:42:50;;;;;;;10.03;7.90;;;17.20;99.90;;;;;;4916981;29;20573;-68
2021/08/19 07:45:19;;;;;;;8.43;7.10;;;17.20;99.90;;;;;;4917136;29;21050;-67
2021/08/19 07:47:46;;;;;;;8.10;7.47;;;17.20;99.90;;;;;;4917517;29;20478;-67
2021/08/19 07:50:13;;;;;;;7.70;7.07;;;17.20;99.90;;;;;;4917676;29;20466;-66
2021/08/19 07:52:40;;;;;;;8.10;7.40;;;17.10;99.90;;;;;;4916863;29;20475;-66
2021/08/19 07:55:08;;;;;;;8.77;8.03;;;17.10;99.90;;;;;;4910374;29;20475;-66
2021/08/19 07:57:44;;;;;;;7.80;7.17;;;17.10;99.90;;;;;;4910414;29;20817;-67
2021/08/19 08:00:11;;;;;;;7.63;6.93;;;17.20;99.90;;;;;;4909631;29;20494;-67
2021/08/19 08:02:39;;;;;;;6.70;6.20;;;17.20;99.90;;;;;;4911313;29;20471;-66
2021/08/19 08:05:08;;;;;;;7.13;6.53;;;17.30;99.90;;;;;;4911148;29;20562;-66
2021/08/19 08:07:35;;;;;;;9.53;6.30;;;17.30;99.90;;;;;;4928741;29;20467;-67
2021/08/19 08:10:04;;;;;;;7.07;6.40;;;17.40;99.90;;;;;;4917109;29;20584;-67
2021/08/19 08:12:31;;;;;;;6.87;6.47;;;17.50;99.90;;;;;;4916211;29;20494;-66
2021/08/19 08:14:58;;;;;;;7.60;5.70;;;17.60;99.90;;;;;;4917149;29;20784;-66
2021/08/19 08:17:24;;;;;;;6.30;5.90;;;17.70;99.90;;;;;;4916516;29;20870;-67
2021/08/19 08:19:53;;;;;;;6.40;5.80;;;17.70;99.90;;;;;;4916575;29;21010;-69
2021/08/19 08:22:20;;;;;;;5.70;5.40;;;17.80;99.90;;;;;;4916010;29;20505;-69
2021/08/19 08:24:46;;;;;;;7.50;5.90;;;17.80;99.90;;;;;;4915985;29;20940;-69
2021/08/19 08:27:13;;;;;;;7.20;6.33;;;17.80;99.90;;;;;;4917095;29;20466;-68
2021/08/19 08:29:40;;;;;;;6.77;6.27;;;17.80;99.90;;;;;;4916100;29;20486;-69
2021/08/19 08:32:07;;;;;;;12.23;6.37;;;17.90;99.90;;;;;;4900925;29;20487;-68
2021/08/19 08:34:34;;;;;;;7.03;6.50;;;18.00;99.90;;;;;;4897664;29;20605;-70
2021/08/19 08:37:03;;;;;;;5.50;5.00;;;18.20;99.90;;;;;;4898091;29;20510;-69
2021/08/19 08:39:31;;;;;;;5.40;5.10;;;18.20;99.90;;;;;;4901068;29;20466;-69
2021/08/19 08:41:58;;;;;;;5.93;5.63;;;18.30;99.90;;;;;;4916352;29;20560;-69
2021/08/19 08:44:28;;;;;;;6.80;5.50;;;18.20;99.90;;;;;;4915772;29;20535;-69
2021/08/19 08:46:55;;;;;;;5.50;5.20;;;18.10;99.90;;;;;;4916310;29;20513;-70
2021/08/19 08:49:23;;;;;;;6.13;5.53;;;18.10;99.90;;;;;;4916407;29;20831;-70
2021/08/19 08:51:55;;;;;;;6.33;5.93;;;18.00;99.90;;;;;;4916727;29;20879;-70
2021/08/19 08:54:23;;;;;;;7.40;6.47;;;18.00;99.90;;;;;;4916139;29;20875;-70
2021/08/19 08:56:50;;;;;;;6.10;5.77;;;18.00;99.90;;;;;;4916235;29;20466;-70
2021/08/19 08:59:17;;;;;;;7.30;6.70;;;18.00;99.90;;;;;;4916273;29;20477;-70
2021/08/19 09:01:44;;;;;;;7.33;6.70;;;18.00;99.90;;;;;;4915833;29;20509;-70
2021/08/19 09:04:10;;;;;;;6.73;6.20;;;18.10;99.90;;;;;;4911404;29;20529;-70
2021/08/19 09:06:39;;;;;;;5.77;5.50;;;18.40;99.90;;;;;;4916115;29;20785;-69
2021/08/19 09:09:15;;;;;;;6.97;5.70;;;18.70;99.90;;;;;;4915480;29;20458;-70
2021/08/19 09:11:44;;;;;;;6.73;6.13;;;19.00;99.90;;;;;;4916342;29;20576;-70
2021/08/19 09:14:20;;;;;;;6.23;5.63;;;19.30;99.90;;;;;;4914474;29;20479;-70
2021/08/19 09:16:47;;;;;;;6.30;5.70;;;19.40;99.90;;;;;;4897326;29;20550;-69
2021/08/19 09:19:16;;;;;;;6.43;5.83;;;19.50;99.90;;;;;;4912585;29;20530;-70
2021/08/19 09:21:47;;;;;;;6.30;5.30;;;19.50;99.90;;;;;;4916416;29;20498;-69
2021/08/19 09:24:16;;;;;;;5.93;5.03;;;19.60;99.90;;;;;;4917830;29;20482;-69
2021/08/19 09:26:44;;;;;;;7.00;5.13;;;19.60;99.90;;;;;;4920034;29;20545;-69
2021/08/19 09:29:19;;;;;;;6.00;5.60;;;19.50;99.90;;;;;;4918801;29;20529;-69
2021/08/19 09:31:46;;;;;;;5.23;4.83;;;19.40;99.90;;;;;;4919263;29;20477;-69
2021/08/19 09:34:13;;;;;;;6.10;5.70;;;19.40;99.90;;;;;;4919322;29;20509;-69
2021/08/19 09:36:40;;;;;;;6.03;5.67;;;19.30;99.90;;;;;;4919952;29;20474;-69
2021/08/19 09:39:08;;;;;;;5.80;5.40;;;19.20;99.90;;;;;;4918782;29;20466;-69
2021/08/19 09:41:52;;;;;;;5.90;5.63;;;19.10;99.90;;;;;;4919988;29;20953;-69
2021/08/19 09:44:29;;;;;;;7.27;6.67;;;18.90;99.90;;;;;;4918463;29;20495;-69
2021/08/19 09:46:56;;;;;;;7.67;7.17;;;18.80;99.90;;;;;;4919500;29;20462;-69
2021/08/19 09:49:24;;;;;;;6.97;6.40;;;18.90;99.90;;;;;;4919215;29;20510;-69
2021/08/19 09:52:01;;;;;;;8.93;7.10;;;19.10;99.90;;;;;;4919470;29;20490;-68
2021/08/19 09:54:29;;;;;;;6.50;6.10;;;19.30;99.90;;;;;;4903067;29;20485;-70
2021/08/19 09:56:57;;;;;;;8.00;7.40;;;19.50;99.90;;;;;;4907347;29;20475;-71
2021/08/19 09:59:25;;;;;;;7.63;6.80;;;19.70;99.90;;;;;;4916667;29;20466;-68
2021/08/19 10:01:53;;;;;;;7.13;6.53;;;19.90;99.90;;;;;;4918664;29;20494;-67
2021/08/19 10:04:20;;;;;;;7.13;6.53;;;20.00;99.90;;;;;;4921836;29;20466;-69
2021/08/19 10:06:49;;;;;;;6.50;6.20;;;20.10;99.90;;;;;;4919585;29;20819;-70
2021/08/19 10:09:16;;;;;;;6.80;6.40;;;20.20;99.90;;;;;;4918461;29;20538;-67
2021/08/19 10:11:44;;;;;;;7.60;6.87;;;20.10;99.90;;;;;;4917997;29;20478;-68
2021/08/19 10:14:15;;;;;;;7.27;6.77;;;19.90;99.90;;;;;;4914346;29;20911;-67
2021/08/19 10:16:42;;;;;;;7.83;7.43;;;19.90;99.90;;;;;;4910477;29;20893;-68
2021/08/19 10:19:12;;;;;;;9.30;7.20;;;19.80;99.90;;;;;;4918027;29;20470;-67
2021/08/19 10:21:43;;;;;;;6.53;6.07;;;19.80;99.90;;;;;;4917160;29;20482;-67
2021/08/19 10:24:11;;;;;;;7.50;6.77;;;19.90;99.90;;;;;;4918079;29;20521;-66
2021/08/19 10:26:38;;;;;;;6.27;5.87;;;20.10;99.90;;;;;;4917712;29;20850;-66
2021/08/19 10:29:05;;;;;;;7.77;7.07;;;20.40;99.90;;;;;;4916383;29;21037;-67
2021/08/19 10:31:49;;;;;;;6.57;6.10;;;20.50;99.90;;;;;;4900018;29;20555;-67
2021/08/19 10:34:18;;;;;;;6.67;6.37;;;20.60;99.90;;;;;;4901728;29;20466;-67
2021/08/19 10:36:53;;;;;;;6.87;6.40;;;20.60;99.90;;;;;;4918177;29;20473;-66
2021/08/19 10:39:39;;;;;;;6.83;6.30;;;20.60;99.90;;;;;;4916697;29;20879;-67
2021/08/19 10:42:27;;;;;;;6.20;5.90;;;20.70;99.90;;;;;;4916999;29;20542;-68
2021/08/19 10:44:54;;;;;;;5.50;5.00;;;20.70;99.90;;;;;;4916648;29;20470;-68
2021/08/19 10:47:39;;;;;;;7.10;6.50;;;20.90;99.90;;;;;;4907864;29;21026;-69
2021/08/19 10:50:26;;;;;;;5.00;4.80;;;21.10;99.90;;;;;;4899410;29;20562;-70
2021/08/19 10:52:53;;;;;;;5.70;5.30;;;21.20;99.90;;;;;;4911287;29;20554;-70
2021/08/19 10:55:20;;;;;;;4.87;4.67;;;21.10;99.90;;;;;;4917407;29;20489;-69
2021/08/19 10:57:48;;;;;;;4.70;4.50;;;21.00;99.90;;;;;;4905954;29;20544;-70
2021/08/19 11:00:16;;;;;;;6.87;4.33;;;21.00;99.90;;;;;;4898439;29;20543;-69
2021/08/19 11:02:45;;;;;;;4.47;4.10;;;20.90;99.90;;;;;;4907983;29;20499;-68
2021/08/19 11:05:13;;;;;;;5.20;4.77;;;20.90;99.90;;;;;;4917702;29;20499;-69
2021/08/19 11:07:50;;;;;;;5.03;4.57;;;20.80;99.90;;;;;;4909043;29;20471;-69
2021/08/19 11:10:24;;;;;;;4.40;4.20;;;20.80;99.90;;;;;;4916347;29;20801;-69
2021/08/19 11:12:51;;;;;;;4.33;4.13;;;20.80;99.90;;;;;;4915863;29;20462;-69
2021/08/19 11:15:19;;;;;;;3.77;3.67;;;20.90;99.90;;;;;;4917349;29;20791;-69
2021/08/19 11:17:54;;;;;;;4.60;4.20;;;21.00;99.90;;;;;;4903352;29;20463;-69
2021/08/19 11:20:34;;;;;;;4.20;3.93;;;21.20;99.90;;;;;;4917550;29;20458;-69
2021/08/19 11:23:06;;;;;;;5.10;4.70;;;21.40;99.90;;;;;;4908183;29;21014;-69
2021/08/19 11:25:34;;;;;;;4.27;4.07;;;21.40;99.90;;;;;;4917310;29;20807;-69
2021/08/19 11:28:11;;;;;;;4.10;3.80;;;21.40;99.90;;;;;;4915065;29;20479;-69
2021/08/19 11:30:39;;;;;;;3.90;3.70;;;21.30;99.90;;;;;;4917226;29;20520;-69
2021/08/19 11:33:15;;;;;;;4.40;4.17;;;21.20;99.90;;;;;;4916318;29;20467;-69
2021/08/19 11:35:45;;;;;;;3.83;3.63;;;21.20;99.90;;;;;;4916454;29;20474;-70
2021/08/19 11:38:13;;;;;;;4.77;4.47;;;21.20;99.90;;;;;;4915321;29;20907;-69
2021/08/19 11:40:42;;;;;;;4.10;3.90;;;21.20;99.90;;;;;;4916418;29;20493;-69
2021/08/19 11:43:26;;;;;;;5.00;4.60;;;21.30;99.90;;;;;;4916270;29;20515;-69
2021/08/19 11:45:54;;;;;;;4.90;4.40;;;21.20;99.90;;;;;;4903015;29;20460;-70
2021/08/19 11:48:23;;;;;;;5.60;5.20;;;21.40;99.90;;;;;;4916800;29;20514;-70
2021/08/19 11:50:54;;;;;;;5.80;5.40;;;21.40;99.90;;;;;;4912315;29;20547;-70
2021/08/19 11:53:22;;;;;;;5.30;5.00;;;21.40;99.90;;;;;;4904782;29;20608;-70
2021/08/19 11:55:50;;;;;;;5.40;5.00;;;21.40;99.90;;;;;;4908508;29;20467;-70
2021/08/19 11:58:18;;;;;;;5.90;5.27;;;21.50;99.90;;;;;;4914154;29;20516;-71
2021/08/19 12:01:04;;;;;;;5.03;4.57;;;21.70;99.90;;;;;;4916846;29;20498;-71
2021/08/19 12:03:33;;;;;;;4.87;4.57;;;21.60;99.90;;;;;;4913154;29;20483;-71
2021/08/19 12:06:05;;;;;;;5.83;5.53;;;21.80;99.90;;;;;;4899698;29;20479;-70
2021/08/19 12:08:32;;;;;;;5.50;5.07;;;21.80;99.90;;;;;;4915780;29;20471;-70
2021/08/19 12:11:01;;;;;;;5.20;4.90;;;21.80;99.90;;;;;;4915163;29;20501;-70
2021/08/19 12:13:29;;;;;;;4.27;4.07;;;21.60;99.90;;;;;;4914801;29;20820;-70
2021/08/19 12:15:56;;;;;;;4.70;4.50;;;21.40;99.90;;;;;;4906166;29;20471;-70
2021/08/19 12:18:24;;;;;;;4.33;4.23;;;21.20;99.90;;;;;;4897156;29;21200;-70
2021/08/19 12:21:12;;;;;;;5.20;4.80;;;21.10;99.90;;;;;;4914863;29;20501;-69
2021/08/19 12:23:39;;;;;;;3.63;3.53;;;21.30;99.90;;;;;;4897030;29;20491;-70
2021/08/19 12:26:07;;;;;;;4.30;4.00;;;21.40;99.90;;;;;;4904487;29;20447;-70
2021/08/19 12:28:34;;;;;;;4.10;3.90;;;21.40;99.90;;;;;;4904622;29;20475;-69
2021/08/19 12:31:03;;;;;;;4.80;4.50;;;21.50;99.90;;;;;;4898046;29;20515;-73
2021/08/19 12:33:32;;;;;;;4.33;4.03;;;21.60;99.90;;;;;;4906043;29;20494;-70
2021/08/19 12:36:14;;;;;;;3.80;3.60;;;21.60;99.90;;;;;;4915762;29;20478;-70
2021/08/19 12:38:42;;;;;;;4.40;4.17;;;21.60;99.90;;;;;;4915051;29;20473;-70
2021/08/19 12:41:17;;;;;;;4.80;4.40;;;21.40;99.90;;;;;;4915490;29;20486;-71
2021/08/19 12:43:45;;;;;;;3.70;3.50;;;21.30;99.90;;;;;;4915536;29;20513;-70
2021/08/19 12:46:16;;;;;;;3.73;3.60;;;21.20;99.90;;;;;;4899891;29;20467;-69
2021/08/19 12:48:44;;;;;;;3.80;3.70;;;21.20;99.90;;;;;;4906984;29;20550;-69
2021/08/19 12:51:20;;;;;;;3.70;3.60;;;21.10;99.90;;;;;;4915918;29;20510;-69
2021/08/19 12:54:04;;;;;;;3.93;3.63;;;21.10;99.90;;;;;;4915010;29;20834;-69
2021/08/19 12:56:30;;;;;;;3.80;3.70;;;21.00;99.90;;;;;;4916071;29;20572;-70
2021/08/19 12:58:57;;;;;;;3.80;3.70;;;20.90;99.90;;;;;;4914586;29;20459;-69
2021/08/19 13:01:24;;;;;;;4.43;4.17;;;20.90;99.90;;;;;;4915666;29;20494;-69
2021/08/19 13:03:51;;;;;;;4.23;3.97;;;20.80;99.90;;;;;;4915469;29;20512;-69
2021/08/19 13:06:19;;;;;;;4.90;4.60;;;20.80;99.90;;;;;;4916005;29;20463;-69
2021/08/19 13:08:46;;;;;;;3.93;3.73;;;20.70;99.90;;;;;;4915563;29;20506;-70
2021/08/19 13:11:14;;;;;;;3.57;3.27;;;20.70;99.90;;;;;;4907774;29;20574;-69
2021/08/19 13:13:40;;;;;;;3.20;3.10;;;20.50;99.90;;;;;;4913365;29;20514;-69
2021/08/19 13:16:07;;;;;;;3.70;3.60;;;20.40;99.90;;;;;;4912721;29;20510;-71
2021/08/19 13:18:34;;;;;;;3.93;3.83;;;20.40;99.90;;;;;;4916717;29;20466;-69
2021/08/19 13:21:03;;;;;;;4.60;4.40;;;20.40;99.90;;;;;;4903449;29;20840;-69
2021/08/19 13:23:31;;;;;;;6.40;4.10;;;20.30;99.90;;;;;;4897152;29;20503;-69
2021/08/19 13:25:58;;;;;;;4.80;4.60;;;20.40;99.90;;;;;;4912119;29;20462;-69
2021/08/19 13:28:25;;;;;;;4.67;4.27;;;20.40;99.90;;;;;;4916062;29;20483;-69
2021/08/19 13:30:52;;;;;;;4.50;4.20;;;20.40;99.90;;;;;;4915971;29;20554;-69
2021/08/19 13:33:18;;;;;;;5.00;4.70;;;20.40;99.90;;;;;;4915084;29;21038;-68
2021/08/19 13:35:45;;;;;;;6.03;5.53;;;20.30;99.90;;;;;;4915476;29;20466;-69
2021/08/19 13:38:12;;;;;;;8.23;7.63;;;20.30;99.90;;;;;;4915310;29;20549;-69
2021/08/19 13:40:40;;;;;;;7.87;7.33;;;20.20;99.90;;;;;;4915296;29;20482;-69
2021/08/19 13:43:06;;;;;;;8.47;7.77;;;20.10;99.90;;;;;;4914544;29;20490;-69
2021/08/19 13:45:33;;;;;;;7.93;7.33;;;20.00;99.90;;;;;;4915678;29;20489;-69
2021/08/19 13:48:02;;;;;;;8.80;8.00;;;19.90;99.90;;;;;;4915575;29;20558;-69
2021/08/19 13:50:29;;;;;;;9.80;8.80;;;19.80;99.90;;;;;;4915809;29;20570;-68
2021/08/19 13:52:55;;;;;;;9.00;8.20;;;19.90;99.90;;;;;;4907380;29;20903;-68
2021/08/19 13:55:22;;;;;;;8.10;7.50;;;19.90;99.90;;;;;;4915720;29;20466;-68
2021/08/19 13:57:51;;;;;;;7.77;7.00;;;19.90;99.90;;;;;;4915009;29;20554;-69
2021/08/19 14:00:18;;;;;;;7.60;7.00;;;20.00;99.90;;;;;;4904655;29;20475;-69
2021/08/19 14:02:48;;;;;;;7.57;7.03;;;20.20;99.90;;;;;;4915145;29;20502;-69
2021/08/19 14:05:14;;;;;;;8.00;7.40;;;20.30;99.90;;;;;;4915058;29;20825;-69
2021/08/19 14:07:41;;;;;;;7.60;7.00;;;20.30;99.90;;;;;;4904720;29;20495;-69
2021/08/19 14:10:09;;;;;;;7.57;6.97;;;20.40;99.90;;;;;;4908934;29;20840;-69
2021/08/19 14:12:35;;;;;;;8.10;7.60;;;20.50;99.90;;;;;;4917416;29;20474;-69
2021/08/19 14:15:04;;;;;;;6.77;6.20;;;20.60;99.90;;;;;;4918744;29;20474;-70
2021/08/19 14:17:30;;;;;;;7.97;7.27;;;20.70;99.90;;;;;;4918377;29;20874;-69
2021/08/19 14:19:57;;;;;;;7.17;6.67;;;20.80;99.90;;;;;;4918669;29;20553;-69
2021/08/19 14:22:24;;;;;;;7.87;7.33;;;20.80;99.90;;;;;;4918402;29;20494;-69
2021/08/19 14:24:50;;;;;;;7.80;7.10;;;20.70;99.90;;;;;;4917953;29;20470;-71
2021/08/19 14:27:17;;;;;;;7.20;6.70;;;20.70;99.90;;;;;;4915336;29;20478;-69
2021/08/19 14:29:44;;;;;;;6.77;6.27;;;20.80;99.90;;;;;;4917976;29;20478;-69
2021/08/19 14:32:12;;;;;;;7.17;6.67;;;20.70;99.90;;;;;;4904545;29;20565;-70
2021/08/19 14:34:39;;;;;;;6.10;5.60;;;20.60;99.90;;;;;;4915024;29;20466;-69
2021/08/19 14:37:07;;;;;;;6.37;5.83;;;20.60;99.90;;;;;;4917653;29;20526;-69
2021/08/19 14:39:34;;;;;;;6.97;6.43;;;20.60;99.90;;;;;;4916876;29;20500;-69
2021/08/19 14:42:01;;;;;;;7.00;6.50;;;20.70;99.90;;;;;;4903887;29;20507;-69
2021/08/19 14:44:27;;;;;;;7.33;6.93;;;20.60;99.90;;;;;;4917401;29;20469;-69
2021/08/19 14:46:55;;;;;;;7.57;7.00;;;20.60;99.90;;;;;;4916279;29;20458;-69
2021/08/19 14:49:23;;;;;;;6.80;6.33;;;20.50;99.90;;;;;;4917302;29;20814;-70
2021/08/19 14:51:50;;;;;;;6.67;6.17;;;20.50;99.90;;;;;;4917915;29;20490;-70
2021/08/19 14:54:16;;;;;;;5.70;5.40;;;20.40;99.90;;;;;;4911275;29;20455;-70
2021/08/19 14:56:48;;;;;;;7.53;6.93;;;20.40;99.90;;;;;;4918035;29;20530;-70
2021/08/19 14:59:15;;;;;;;5.63;5.30;;;20.40;99.90;;;;;;4915897;29;20466;-69
2021/08/19 15:01:42;;;;;;;7.50;6.70;;;20.40;99.90;;;;;;4918047;29;20494;-70
2021/08/19 15:04:09;;;;;;;8.03;7.40;;;20.30;99.90;;;;;;4916121;29;20494;-69
2021/08/19 15:06:37;;;;;;;7.13;6.63;;;20.30;99.90;;;;;;4917277;29;20514;-69
2021/08/19 15:09:04;;;;;;;8.10;7.60;;;20.20;99.90;;;;;;4916420;29;20462;-70
2021/08/19 15:11:37;;;;;;;7.17;6.67;;;20.10;99.90;;;;;;4911856;29;20618;-70
2021/08/19 15:14:04;;;;;;;8.97;8.27;;;20.10;99.90;;;;;;4906233;29;20499;-70
2021/08/19 15:16:31;;;;;;;9.57;8.73;;;20.00;99.90;;;;;;4913802;29;20466;-70
2021/08/19 15:18:58;;;;;;;9.57;8.77;;;19.90;99.90;;;;;;4908221;29;20467;-70
2021/08/19 15:21:25;;;;;;;8.60;7.90;;;19.90;99.90;;;;;;4900360;29;20499;-70
2021/08/19 15:23:52;;;;;;;9.10;8.30;;;19.90;99.90;;;;;;4901968;29;20482;-70
2021/08/19 15:26:19;;;;;;;7.30;6.87;;;19.90;99.90;;;;;;4917861;29;20466;-70
2021/08/19 15:28:46;;;;;;;8.03;7.43;;;19.90;99.90;;;;;;4916021;29;20471;-70
2021/08/19 15:31:12;;;;;;;7.80;7.10;;;19.90;99.90;;;;;;4904148;29;20498;-69
2021/08/19 15:33:39;;;;;;;7.30;6.70;;;19.90;99.90;;;;;;4901075;29;20475;-70
2021/08/19 15:36:07;;;;;;;7.57;7.00;;;20.00;99.90;;;;;;4900243;29;20467;-70
2021/08/19 15:38:35;;;;;;;7.17;6.53;;;20.00;99.90;;;;;;4915100;29;20466;-70
2021/08/19 15:41:03;;;;;;;6.70;6.30;;;20.00;99.90;;;;;;4913830;29;20486;-70
2021/08/19 15:43:30;;;;;;;6.60;6.10;;;20.10;99.90;;;;;;4914401;29;20825;-70
2021/08/19 15:45:57;;;;;;;6.67;6.27;;;20.20;99.90;;;;;;4914906;29;20947;-73
2021/08/19 15:48:23;;;;;;;6.57;5.97;;;20.10;99.90;;;;;;4915365;29;20474;-71
2021/08/19 15:50:50;;;;;;;5.87;5.57;;;20.10;99.90;;;;;;4915484;29;20478;-71
2021/08/19 15:53:16;;;;;;;6.20;5.80;;;20.00;99.90;;;;;;4899213;29;20473;-71
2021/08/19 15:55:43;;;;;;;5.40;5.10;;;19.80;99.90;;;;;;4914430;29;20474;-71
2021/08/19 15:58:12;;;;;;;5.60;5.30;;;19.70;99.90;;;;;;4914846;29;20955;-71
2021/08/19 16:00:38;;;;;;;5.03;4.80;;;19.60;99.90;;;;;;4914941;29;20494;-72
2021/08/19 16:03:05;;;;;;;5.90;5.50;;;19.60;99.90;;;;;;4914268;29;20808;-71
2021/08/19 16:05:33;;;;;;;6.30;5.90;;;19.50;99.90;;;;;;4915984;29;20526;-72
2021/08/19 16:08:02;;;;;;;7.47;6.87;;;19.50;99.90;;;;;;4916196;29;20979;-70
2021/08/19 16:10:29;;;;;;;4.90;4.50;;;19.40;99.90;;;;;;4915872;29;20490;-70
2021/08/19 16:12:55;;;;;;;4.00;3.70;;;19.00;99.90;;;;;;4914636;29;20470;-72
2021/08/19 16:15:23;;;;;;;4.73;4.33;;;18.60;99.90;;;;;;4915146;29;20490;-70
2021/08/19 16:17:50;;;;;;;4.30;4.00;;;18.40;99.90;;;;;;4915853;29;20467;-69
2021/08/19 16:20:17;;;;;;;3.97;3.77;;;18.20;99.90;;;;;;4909203;29;20473;-72
2021/08/19 16:22:43;;;;;;;4.07;3.87;;;18.00;99.90;;;;;;4913514;29;20474;-71
2021/08/19 16:25:12;;;;;;;5.17;4.80;;;17.90;99.90;;;;;;4905841;29;20464;-71
2021/08/19 16:27:39;;;;;;;4.90;4.50;;;17.90;99.90;;;;;;4910620;29;20505;-71
2021/08/19 16:30:06;;;;;;;4.70;4.20;;;17.70;99.90;;;;;;4913753;29;20466;-70
2021/08/19 16:32:34;;;;;;;5.53;5.10;;;17.70;99.90;;;;;;4914706;29;20565;-71
2021/08/19 16:35:01;;;;;;;6.17;4.93;;;17.50;99.90;;;;;;4914369;29;20467;-71
2021/08/19 16:37:28;;;;;;;5.57;5.17;;;17.40;99.90;;;;;;4912713;29;20466;-70
2021/08/19 16:39:54;;;;;;;6.97;6.30;;;17.30;99.90;;;;;;4896699;29;20475;-71
2021/08/19 16:42:21;;;;;;;6.47;5.90;;;17.20;99.90;;;;;;4903102;29;20998;-72
2021/08/19 16:44:48;;;;;;;6.87;6.30;;;17.10;99.90;;;;;;4904013;29;20994;-71
2021/08/19 16:47:14;;;;;;;5.57;5.17;;;17.10;99.90;;;;;;4909626;29;20487;-71
2021/08/19 16:49:42;;;;;;;6.70;6.10;;;17.00;99.90;;;;;;4896893;29;21024;-72
2021/08/19 16:52:09;;;;;;;9.07;6.60;;;16.90;99.90;;;;;;4897374;29;20491;-71